Time;durP1;ratioP1;P1;durP2;ratioP2;P2;SDS_P1;SDS_P2;PMS_P1;PMS_P2;Temp;Humidity;BMP_temperature;BMP_pressure;BME280_temperature;BME280_humidity;BME280_pressure;Samples;Min_cycle;Max_cycle;Signal;HPM_P1;HPM_P2
2024/01/13 00:01:54;;;;;;;0.20;0.10;;;;;;;;;;4927568;29;20074;-86
2024/01/13 00:04:20;;;;;;;0.20;0.10;;;;;;;;;;4914286;29;20447;-84
2024/01/13 00:06:46;;;;;;;0.20;0.10;;;;;;;;;;4915396;29;20046;-87
2024/01/13 00:09:12;;;;;;;0.20;0.10;;;;;;;;;;4932585;29;20051;-85
2024/01/13 00:11:38;;;;;;;0.40;0.20;;;;;;;;;;4918990;28;20105;-85
2024/01/13 00:14:05;;;;;;;0.20;0.10;;;;;;;;;;4927553;29;20459;-87
2024/01/13 00:16:31;;;;;;;0.20;0.10;;;;;;;;;;4912746;28;20098;-86
2024/01/13 00:18:57;;;;;;;0.20;0.10;;;;;;;;;;4917080;29;20035;-88
2024/01/13 00:21:26;;;;;;;0.20;0.10;;;;;;;;;;4932585;28;20482;-88
2024/01/13 00:23:52;;;;;;;0.20;0.10;;;;;;;;;;4931800;29;20050;-84
2024/01/13 00:26:18;;;;;;;0.20;0.10;;;;;;;;;;4908102;29;20039;-84
2024/01/13 00:28:47;;;;;;;0.20;0.10;;;;;;;;;;4915223;28;20515;-85
2024/01/13 00:31:15;;;;;;;0.20;0.10;;;;;;;;;;4915904;28;20043;-86
2024/01/13 00:33:43;;;;;;;0.20;0.10;;;;;;;;;;4913743;28;20043;-86
2024/01/13 00:36:14;;;;;;;0.20;0.10;;;;;;;;;;4922593;29;20059;-89
2024/01/13 00:38:43;;;;;;;0.20;0.10;;;;;;;;;;4926700;28;20057;-88
2024/01/13 00:41:14;;;;;;;0.20;0.10;;;;;;;;;;4927041;28;20074;-86
2024/01/13 00:43:42;;;;;;;0.20;0.10;;;;;;;;;;4917195;28;20047;-87
2024/01/13 00:46:08;;;;;;;0.20;0.10;;;;;;;;;;4911089;28;20097;-88
2024/01/13 00:48:36;;;;;;;0.20;0.10;;;;;;;;;;4932321;28;20062;-85
2024/01/13 00:51:02;;;;;;;0.20;0.10;;;;;;;;;;4946327;28;20043;-87
2024/01/13 00:53:30;;;;;;;0.20;0.10;;;;;;;;;;4929019;28;20062;-84
2024/01/13 00:55:56;;;;;;;0.20;0.10;;;;;;;;;;4919210;29;20047;-86
2024/01/13 00:58:29;;;;;;;0.20;0.10;;;;;;;;;;4931023;29;20054;-87
2024/01/13 01:01:05;;;;;;;0.20;0.10;;;;;;;;;;4930779;29;20043;-88
2024/01/13 01:03:47;;;;;;;0.20;0.10;;;;;;;;;;4926159;28;20492;-86
2024/01/13 01:06:14;;;;;;;0.20;0.10;;;;;;;;;;4925043;29;20043;-85
2024/01/13 01:08:42;;;;;;;0.20;0.10;;;;;;;;;;4933917;28;20420;-85
2024/01/13 01:11:11;;;;;;;0.20;0.10;;;;;;;;;;4922071;28;20500;-87
2024/01/13 01:13:38;;;;;;;0.32;0.30;;;;;;;;;;4929565;28;20500;-87
2024/01/13 01:16:04;;;;;;;0.20;0.00;;;;;;;;;;4929875;29;20484;-85
2024/01/13 01:18:30;;;;;;;0.20;0.10;;;;;;;;;;4927821;28;20043;-85
2024/01/13 01:20:56;;;;;;;0.20;0.10;;;;;;;;;;4912163;29;20047;-86
2024/01/13 01:23:25;;;;;;;0.20;0.00;;;;;;;;;;4929379;29;20055;-87
2024/01/13 01:25:51;;;;;;;0.20;0.10;;;;;;;;;;4929893;29;20114;-85
2024/01/13 01:28:17;;;;;;;0.20;0.10;;;;;;;;;;4919156;29;20047;-85
2024/01/13 01:30:43;;;;;;;0.20;0.10;;;;;;;;;;4923256;28;20454;-87
2024/01/13 01:33:09;;;;;;;0.20;0.10;;;;;;;;;;4933529;28;20058;-84
2024/01/13 01:35:35;;;;;;;0.20;0.10;;;;;;;;;;4936445;28;20039;-86
2024/01/13 01:38:01;;;;;;;0.20;0.10;;;;;;;;;;4920229;29;20046;-89
2024/01/13 01:40:27;;;;;;;0.20;0.08;;;;;;;;;;4913261;28;20050;-88
2024/01/13 01:42:56;;;;;;;0.20;0.10;;;;;;;;;;4947711;28;20047;-89
2024/01/13 01:45:32;;;;;;;0.20;0.10;;;;;;;;;;4935781;29;20476;-89
2024/01/13 01:47:59;;;;;;;0.20;0.10;;;;;;;;;;4934212;29;20070;-86
2024/01/13 01:50:25;;;;;;;0.20;0.10;;;;;;;;;;4921730;29;20525;-84
2024/01/13 01:52:54;;;;;;;0.20;0.10;;;;;;;;;;4911336;29;20043;-89
2024/01/13 01:55:27;;;;;;;0.20;0.10;;;;;;;;;;4918378;29;20031;-89
2024/01/13 01:57:54;;;;;;;0.20;0.10;;;;;;;;;;4930592;29;20424;-89
2024/01/13 02:00:21;;;;;;;0.20;0.10;;;;;;;;;;4916764;29;20471;-86
2024/01/13 02:02:47;;;;;;;0.20;0.10;;;;;;;;;;4918764;28;20055;-88
2024/01/13 02:05:18;;;;;;;0.20;0.10;;;;;;;;;;4917180;29;20086;-88
2024/01/13 02:07:57;;;;;;;0.20;0.10;;;;;;;;;;4933789;29;20036;-86
2024/01/13 02:10:26;;;;;;;0.20;0.10;;;;;;;;;;4915272;29;20054;-88
2024/01/13 02:12:55;;;;;;;0.20;0.10;;;;;;;;;;4918155;29;20054;-86
2024/01/13 02:15:32;;;;;;;0.20;0.10;;;;;;;;;;4913721;29;20109;-87
2024/01/13 02:17:58;;;;;;;0.20;0.00;;;;;;;;;;4929111;29;20272;-86
2024/01/13 02:20:24;;;;;;;0.20;0.10;;;;;;;;;;4919812;29;20050;-85
2024/01/13 02:22:50;;;;;;;0.20;0.00;;;;;;;;;;4918127;28;20039;-85
2024/01/13 02:25:19;;;;;;;0.20;0.10;;;;;;;;;;4919052;29;20134;-86
2024/01/13 02:27:48;;;;;;;0.20;0.03;;;;;;;;;;4922356;28;20126;-87
2024/01/13 02:30:14;;;;;;;0.20;0.10;;;;;;;;;;4947340;28;20039;-85
2024/01/13 02:32:40;;;;;;;0.20;0.00;;;;;;;;;;4938724;28;20051;-87
2024/01/13 02:35:06;;;;;;;0.20;0.10;;;;;;;;;;4931422;29;20439;-85
2024/01/13 02:37:32;;;;;;;0.20;0.00;;;;;;;;;;4928945;28;20575;-87
2024/01/13 02:39:58;;;;;;;0.20;0.10;;;;;;;;;;4931974;29;20074;-87
2024/01/13 02:42:24;;;;;;;0.20;0.10;;;;;;;;;;4910469;29;20126;-84
2024/01/13 02:44:53;;;;;;;0.20;0.10;;;;;;;;;;4931788;28;20082;-87
2024/01/13 02:47:39;;;;;;;0.30;0.30;;;;;;;;;;4920010;29;20365;-87
2024/01/13 02:50:05;;;;;;;0.20;0.10;;;;;;;;;;4947851;28;20445;-86
2024/01/13 02:52:31;;;;;;;0.20;0.10;;;;;;;;;;4911009;28;20598;-85
2024/01/13 02:54:57;;;;;;;0.20;0.10;;;;;;;;;;4931672;29;20039;-85
2024/01/13 02:57:24;;;;;;;0.20;0.10;;;;;;;;;;4934839;29;20055;-84
2024/01/13 02:59:50;;;;;;;0.20;0.10;;;;;;;;;;4931706;28;20420;-84
2024/01/13 03:02:16;;;;;;;0.20;0.10;;;;;;;;;;4932115;29;20039;-85
2024/01/13 03:04:42;;;;;;;0.20;0.00;;;;;;;;;;4914651;28;20495;-84
2024/01/13 03:07:08;;;;;;;0.20;0.10;;;;;;;;;;4922815;29;20046;-87
2024/01/13 03:09:34;;;;;;;0.20;0.10;;;;;;;;;;4931089;28;20065;-85
2024/01/13 03:12:00;;;;;;;0.20;0.10;;;;;;;;;;4942307;23;20063;-81
2024/01/13 03:14:26;;;;;;;0.20;0.10;;;;;;;;;;4953286;28;20133;-83
2024/01/13 03:16:52;;;;;;;0.20;0.10;;;;;;;;;;4933310;28;20039;-81
2024/01/13 03:19:18;;;;;;;0.20;0.10;;;;;;;;;;4937850;28;20047;-83
2024/01/13 03:21:44;;;;;;;0.20;0.10;;;;;;;;;;4932691;28;20122;-83
2024/01/13 03:24:10;;;;;;;0.20;0.10;;;;;;;;;;4953814;28;20122;-82
2024/01/13 03:26:36;;;;;;;0.20;0.10;;;;;;;;;;4956182;28;20039;-82
2024/01/13 03:29:03;;;;;;;0.20;0.10;;;;;;;;;;4952130;28;20333;-82
2024/01/13 03:31:28;;;;;;;0.20;0.10;;;;;;;;;;4935690;28;20038;-81
2024/01/13 03:33:55;;;;;;;0.20;0.10;;;;;;;;;;4953715;28;20039;-81
2024/01/13 03:36:21;;;;;;;0.20;0.10;;;;;;;;;;4950800;28;20043;-82
2024/01/13 03:38:47;;;;;;;0.20;0.10;;;;;;;;;;4979203;28;20419;-81
2024/01/13 03:41:14;;;;;;;0.20;0.10;;;;;;;;;;4950787;28;20402;-79
2024/01/13 03:43:40;;;;;;;0.20;0.10;;;;;;;;;;4948951;28;20030;-81
2024/01/13 03:46:06;;;;;;;0.20;0.10;;;;;;;;;;4947355;28;20047;-82
2024/01/13 03:48:32;;;;;;;0.38;0.35;;;;;;;;;;4946906;28;20042;-81
2024/01/13 03:50:59;;;;;;;0.20;0.10;;;;;;;;;;4943045;28;20035;-81
2024/01/13 03:53:25;;;;;;;0.20;0.10;;;;;;;;;;4928418;28;20133;-81
2024/01/13 03:55:51;;;;;;;0.20;0.10;;;;;;;;;;4944210;28;20185;-82
2024/01/13 03:58:17;;;;;;;0.20;0.10;;;;;;;;;;4945844;28;20042;-82
2024/01/13 04:00:43;;;;;;;0.20;0.10;;;;;;;;;;4929165;28;20775;-82
2024/01/13 04:03:09;;;;;;;0.20;0.10;;;;;;;;;;4945418;28;20050;-80
2024/01/13 04:05:35;;;;;;;0.20;0.10;;;;;;;;;;4945965;28;20039;-81
2024/01/13 04:08:01;;;;;;;0.20;0.10;;;;;;;;;;4951382;28;20049;-82
2024/01/13 04:10:27;;;;;;;0.20;0.10;;;;;;;;;;4946976;28;20043;-81
2024/01/13 04:12:56;;;;;;;0.20;0.10;;;;;;;;;;4952549;28;20039;-81
2024/01/13 04:15:22;;;;;;;0.20;0.00;;;;;;;;;;4937685;28;20398;-81
2024/01/13 04:17:48;;;;;;;0.20;0.10;;;;;;;;;;4970087;28;20039;-81
2024/01/13 04:20:14;;;;;;;0.20;0.10;;;;;;;;;;4934081;28;20045;-81
2024/01/13 04:22:40;;;;;;;0.20;0.10;;;;;;;;;;4948352;28;20041;-81
2024/01/13 04:25:06;;;;;;;0.20;0.10;;;;;;;;;;4946077;28;20430;-81
2024/01/13 04:27:32;;;;;;;0.20;0.10;;;;;;;;;;4951564;28;21522;-82
2024/01/13 04:29:58;;;;;;;0.20;0.10;;;;;;;;;;4946780;28;20043;-82
2024/01/13 04:32:24;;;;;;;0.20;0.10;;;;;;;;;;4952242;28;20069;-82
2024/01/13 04:34:50;;;;;;;0.20;0.08;;;;;;;;;;4957314;28;20039;-82
2024/01/13 04:37:16;;;;;;;0.20;0.10;;;;;;;;;;4951376;28;20078;-82
2024/01/13 04:39:42;;;;;;;0.20;0.10;;;;;;;;;;4949872;28;20294;-81
2024/01/13 04:42:08;;;;;;;0.20;0.10;;;;;;;;;;4952394;28;20474;-82
2024/01/13 04:44:34;;;;;;;0.20;0.10;;;;;;;;;;4953508;28;20057;-80
2024/01/13 04:47:00;;;;;;;0.20;0.10;;;;;;;;;;4948316;28;20035;-79
2024/01/13 04:49:27;;;;;;;0.20;0.10;;;;;;;;;;4954952;28;20448;-79
2024/01/13 04:51:53;;;;;;;0.20;0.10;;;;;;;;;;4954475;28;20046;-81
2024/01/13 04:54:19;;;;;;;0.20;0.10;;;;;;;;;;4945043;28;20064;-80
2024/01/13 04:56:45;;;;;;;0.20;0.10;;;;;;;;;;4948645;28;20039;-81
2024/01/13 04:59:11;;;;;;;0.20;0.10;;;;;;;;;;4950485;28;20046;-81
2024/01/13 05:01:37;;;;;;;0.20;0.10;;;;;;;;;;4948777;28;20047;-81
2024/01/13 05:04:03;;;;;;;0.20;0.10;;;;;;;;;;4954793;28;20040;-81
2024/01/13 05:06:29;;;;;;;0.20;0.10;;;;;;;;;;4955366;28;20035;-78
2024/01/13 05:08:55;;;;;;;0.20;0.10;;;;;;;;;;4953055;28;20487;-80
2024/01/13 05:11:21;;;;;;;0.20;0.10;;;;;;;;;;4938298;28;20050;-81
2024/01/13 05:13:47;;;;;;;0.20;0.10;;;;;;;;;;4945597;28;20042;-81
2024/01/13 05:16:13;;;;;;;0.20;0.10;;;;;;;;;;4939231;28;20045;-81
2024/01/13 05:18:39;;;;;;;0.20;0.10;;;;;;;;;;4935469;28;20418;-80
2024/01/13 05:21:05;;;;;;;0.20;0.10;;;;;;;;;;4952725;28;20050;-81
2024/01/13 05:23:31;;;;;;;0.20;0.10;;;;;;;;;;4952820;28;20049;-80
2024/01/13 05:25:57;;;;;;;0.20;0.10;;;;;;;;;;4950291;28;20042;-80
2024/01/13 05:28:24;;;;;;;0.20;0.10;;;;;;;;;;4937420;28;20035;-82
2024/01/13 05:30:50;;;;;;;0.20;0.10;;;;;;;;;;4932074;28;20027;-80
2024/01/13 05:33:17;;;;;;;0.20;0.10;;;;;;;;;;4945348;28;20549;-81
2024/01/13 05:35:43;;;;;;;0.20;0.10;;;;;;;;;;4945913;28;20121;-80
2024/01/13 05:38:09;;;;;;;0.20;0.10;;;;;;;;;;4948917;28;20054;-81
2024/01/13 05:40:35;;;;;;;0.20;0.10;;;;;;;;;;4947790;28;20047;-80
2024/01/13 05:43:01;;;;;;;0.20;0.10;;;;;;;;;;4947854;28;20039;-80
2024/01/13 05:45:27;;;;;;;0.20;0.10;;;;;;;;;;4938629;28;20042;-81
2024/01/13 05:47:53;;;;;;;0.20;0.00;;;;;;;;;;4931874;28;20064;-79
2024/01/13 05:50:19;;;;;;;0.20;0.10;;;;;;;;;;4946005;28;20038;-81
2024/01/13 05:52:45;;;;;;;0.20;0.10;;;;;;;;;;4941484;28;20051;-79
2024/01/13 05:55:11;;;;;;;0.20;0.10;;;;;;;;;;4941471;28;20542;-80
2024/01/13 05:57:37;;;;;;;0.20;0.10;;;;;;;;;;4948543;28;20035;-78
2024/01/13 06:00:03;;;;;;;0.20;0.10;;;;;;;;;;4931393;28;20563;-80
2024/01/13 06:02:29;;;;;;;0.20;0.10;;;;;;;;;;4957907;28;20051;-81
2024/01/13 06:04:55;;;;;;;0.20;0.05;;;;;;;;;;4939974;28;20048;-81
2024/01/13 06:07:21;;;;;;;0.20;0.10;;;;;;;;;;4929517;28;20034;-81
2024/01/13 06:09:47;;;;;;;0.20;0.10;;;;;;;;;;4934126;28;20137;-81
2024/01/13 06:12:13;;;;;;;0.20;0.10;;;;;;;;;;4945682;28;20482;-81
2024/01/13 06:14:41;;;;;;;0.20;0.10;;;;;;;;;;4925082;28;20499;-81
2024/01/13 06:17:08;;;;;;;0.20;0.10;;;;;;;;;;4948957;28;20101;-80
2024/01/13 06:19:34;;;;;;;0.20;0.10;;;;;;;;;;4952938;28;20108;-81
2024/01/13 06:22:00;;;;;;;0.20;0.10;;;;;;;;;;4946802;28;20035;-81
2024/01/13 06:24:26;;;;;;;0.20;0.00;;;;;;;;;;4960793;28;20035;-80
2024/01/13 06:26:52;;;;;;;0.20;0.10;;;;;;;;;;4948956;28;20045;-81
2024/01/13 06:29:18;;;;;;;0.20;0.10;;;;;;;;;;4957066;28;20126;-81
2024/01/13 06:31:44;;;;;;;0.20;0.10;;;;;;;;;;4954147;28;20035;-80
2024/01/13 06:34:10;;;;;;;0.20;0.10;;;;;;;;;;4951930;28;20733;-81
2024/01/13 06:36:36;;;;;;;0.20;0.10;;;;;;;;;;4949486;28;20043;-82
2024/01/13 06:39:02;;;;;;;0.20;0.10;;;;;;;;;;4948820;28;20463;-82
2024/01/13 06:41:28;;;;;;;0.20;0.10;;;;;;;;;;4929131;28;20074;-80
2024/01/13 06:43:54;;;;;;;0.20;0.10;;;;;;;;;;4948325;28;20494;-82
2024/01/13 06:46:20;;;;;;;0.20;0.10;;;;;;;;;;4938877;28;20038;-82
2024/01/13 06:48:46;;;;;;;0.20;0.10;;;;;;;;;;4943846;28;20508;-79
2024/01/13 06:51:13;;;;;;;0.20;0.10;;;;;;;;;;4949520;28;20997;-82
2024/01/13 06:53:39;;;;;;;0.20;0.10;;;;;;;;;;4945889;28;20495;-78
2024/01/13 06:56:05;;;;;;;0.20;0.10;;;;;;;;;;4950508;28;20034;-81
2024/01/13 06:58:31;;;;;;;0.20;0.00;;;;;;;;;;4946849;28;20514;-81
2024/01/13 07:00:58;;;;;;;0.20;0.10;;;;;;;;;;4949685;28;20098;-79
2024/01/13 07:03:24;;;;;;;0.20;0.10;;;;;;;;;;4931424;28;20422;-79
2024/01/13 07:05:50;;;;;;;0.20;0.10;;;;;;;;;;4946957;28;20130;-82
2024/01/13 07:08:16;;;;;;;0.20;0.10;;;;;;;;;;4946317;28;20130;-82
2024/01/13 07:10:42;;;;;;;0.20;0.10;;;;;;;;;;4949772;28;20042;-81
2024/01/13 07:13:08;;;;;;;0.20;0.10;;;;;;;;;;4945397;28;20058;-82
2024/01/13 07:15:34;;;;;;;0.20;0.10;;;;;;;;;;4927877;28;20557;-80
2024/01/13 07:18:00;;;;;;;0.20;0.10;;;;;;;;;;4948679;28;20264;-81
2024/01/13 07:20:27;;;;;;;0.20;0.00;;;;;;;;;;4945338;28;20039;-81
2024/01/13 07:22:53;;;;;;;0.20;0.10;;;;;;;;;;4961092;28;20039;-81
2024/01/13 07:25:19;;;;;;;0.20;0.00;;;;;;;;;;4934599;28;20045;-80
2024/01/13 07:27:45;;;;;;;0.20;0.10;;;;;;;;;;4946035;28;20149;-80
2024/01/13 07:30:12;;;;;;;0.20;0.10;;;;;;;;;;4945747;28;20205;-82
2024/01/13 07:32:38;;;;;;;0.20;0.10;;;;;;;;;;4947732;28;20051;-82
2024/01/13 07:35:04;;;;;;;0.20;0.10;;;;;;;;;;4950939;28;20585;-83
2024/01/13 07:37:30;;;;;;;0.20;0.10;;;;;;;;;;4955473;28;20109;-83
2024/01/13 07:39:56;;;;;;;0.20;0.10;;;;;;;;;;4951685;28;20428;-82
2024/01/13 07:42:22;;;;;;;0.20;0.10;;;;;;;;;;4945818;28;20243;-81
2024/01/13 07:44:48;;;;;;;0.20;0.10;;;;;;;;;;4938116;28;20042;-81
2024/01/13 07:47:14;;;;;;;0.20;0.10;;;;;;;;;;4947867;28;20526;-82
2024/01/13 07:49:40;;;;;;;0.20;0.10;;;;;;;;;;4938022;28;20118;-82
2024/01/13 07:52:07;;;;;;;0.20;0.10;;;;;;;;;;4945125;28;20322;-82
2024/01/13 07:54:33;;;;;;;0.20;0.10;;;;;;;;;;4948151;28;20496;-82
2024/01/13 07:56:59;;;;;;;0.20;0.10;;;;;;;;;;4942848;28;20044;-82
2024/01/13 07:59:25;;;;;;;0.20;0.10;;;;;;;;;;4942038;28;20039;-81
2024/01/13 08:01:51;;;;;;;0.20;0.10;;;;;;;;;;4948721;28;20142;-80
2024/01/13 08:04:17;;;;;;;0.20;0.10;;;;;;;;;;4939253;28;20615;-83
2024/01/13 08:06:43;;;;;;;0.20;0.10;;;;;;;;;;4931884;28;20035;-79
2024/01/13 08:09:09;;;;;;;0.20;0.10;;;;;;;;;;4950861;28;20070;-80
2024/01/13 08:11:35;;;;;;;0.20;0.10;;;;;;;;;;4935931;28;20081;-81
2024/01/13 08:14:01;;;;;;;0.20;0.10;;;;;;;;;;4964525;28;20039;-83
2024/01/13 08:16:29;;;;;;;0.20;0.10;;;;;;;;;;4929318;28;20511;-81
2024/01/13 08:18:55;;;;;;;0.20;0.10;;;;;;;;;;4947461;28;20043;-82
2024/01/13 08:21:21;;;;;;;0.20;0.10;;;;;;;;;;4946463;28;20043;-82
2024/01/13 08:23:47;;;;;;;0.20;0.00;;;;;;;;;;4940733;28;20039;-82
2024/01/13 08:26:13;;;;;;;0.20;0.10;;;;;;;;;;4947324;28;20044;-81
2024/01/13 08:28:39;;;;;;;0.20;0.10;;;;;;;;;;4961281;28;20134;-85
2024/01/13 08:31:05;;;;;;;0.20;0.10;;;;;;;;;;4945874;28;20130;-83
2024/01/13 08:33:31;;;;;;;0.20;0.10;;;;;;;;;;4949960;28;20042;-81
2024/01/13 08:35:57;;;;;;;0.20;0.10;;;;;;;;;;4950486;28;20804;-82
2024/01/13 08:38:23;;;;;;;0.20;0.10;;;;;;;;;;4963069;28;20045;-83
2024/01/13 08:40:49;;;;;;;0.20;0.10;;;;;;;;;;4928012;28;20503;-82
2024/01/13 08:43:15;;;;;;;0.20;0.10;;;;;;;;;;4932157;28;20093;-81
2024/01/13 08:45:41;;;;;;;0.20;0.10;;;;;;;;;;4967116;28;20073;-82
2024/01/13 08:48:07;;;;;;;0.20;0.10;;;;;;;;;;4945261;28;20047;-79
2024/01/13 08:50:33;;;;;;;0.20;0.10;;;;;;;;;;4946268;28;20027;-83
2024/01/13 08:52:59;;;;;;;0.20;0.10;;;;;;;;;;4944973;28;20064;-81
2024/01/13 08:55:25;;;;;;;0.20;0.00;;;;;;;;;;4947362;28;20039;-81
2024/01/13 08:57:51;;;;;;;0.20;0.03;;;;;;;;;;4946759;28;20124;-83
2024/01/13 09:00:19;;;;;;;0.20;0.10;;;;;;;;;;4948559;28;20055;-82
2024/01/13 09:02:45;;;;;;;0.20;0.10;;;;;;;;;;4948352;28;20038;-83
2024/01/13 09:05:13;;;;;;;0.20;0.10;;;;;;;;;;4952218;28;20097;-81
2024/01/13 09:07:39;;;;;;;0.20;0.10;;;;;;;;;;4947217;28;20047;-82
2024/01/13 09:10:05;;;;;;;0.20;0.10;;;;;;;;;;4961701;28;20039;-81
2024/01/13 09:12:32;;;;;;;0.20;0.10;;;;;;;;;;4949508;28;20098;-82
2024/01/13 09:14:58;;;;;;;0.20;0.10;;;;;;;;;;4951894;28;20051;-82
2024/01/13 09:17:24;;;;;;;0.20;0.00;;;;;;;;;;4954471;28;20419;-80
2024/01/13 09:19:50;;;;;;;0.20;0.10;;;;;;;;;;4934447;28;20085;-80
2024/01/13 09:22:16;;;;;;;0.20;0.10;;;;;;;;;;4949812;28;20035;-80
2024/01/13 09:24:42;;;;;;;0.20;0.10;;;;;;;;;;4956059;28;20125;-80
2024/01/13 09:27:08;;;;;;;0.40;0.40;;;;;;;;;;4954548;28;20050;-83
2024/01/13 09:29:34;;;;;;;0.20;0.10;;;;;;;;;;4933582;28;20039;-81
2024/01/13 09:32:00;;;;;;;0.20;0.10;;;;;;;;;;4954040;28;20035;-81
2024/01/13 09:34:27;;;;;;;0.30;0.30;;;;;;;;;;4951922;28;20422;-84
2024/01/13 09:36:53;;;;;;;0.20;0.20;;;;;;;;;;4949756;28;20658;-83
2024/01/13 09:39:20;;;;;;;0.20;0.10;;;;;;;;;;4931520;28;20482;-82
2024/01/13 09:41:47;;;;;;;0.45;0.45;;;;;;;;;;4951324;28;20042;-82
2024/01/13 09:44:24;;;;;;;0.20;0.10;;;;;;;;;;4954400;28;20122;-82
2024/01/13 09:46:51;;;;;;;0.22;0.15;;;;;;;;;;4953527;28;20035;-81
2024/01/13 09:49:18;;;;;;;0.43;0.30;;;;;;;;;;4948734;28;20323;-82
2024/01/13 09:51:45;;;;;;;0.20;0.00;;;;;;;;;;4955218;28;20061;-80
2024/01/13 09:54:23;;;;;;;0.20;0.10;;;;;;;;;;4949846;28;20058;-82
2024/01/13 09:56:49;;;;;;;0.20;0.10;;;;;;;;;;4928691;28;20485;-83
2024/01/13 09:59:16;;;;;;;0.20;0.10;;;;;;;;;;4932648;28;20042;-83
2024/01/13 10:01:42;;;;;;;0.20;0.10;;;;;;;;;;4945334;28;20042;-82
2024/01/13 10:04:09;;;;;;;0.20;0.10;;;;;;;;;;4939040;28;20047;-83
2024/01/13 10:06:35;;;;;;;0.20;0.10;;;;;;;;;;4951228;28;20034;-82
2024/01/13 10:09:02;;;;;;;0.28;0.28;;;;;;;;;;4938914;28;20038;-79
2024/01/13 10:11:28;;;;;;;0.20;0.10;;;;;;;;;;4934936;28;20629;-80
2024/01/13 10:14:12;;;;;;;0.30;0.30;;;;;;;;;;4954859;28;20038;-83
2024/01/13 10:16:39;;;;;;;0.28;0.25;;;;;;;;;;4949479;28;20121;-82
2024/01/13 10:19:06;;;;;;;1.08;0.40;;;;;;;;;;4952324;28;20081;-81
2024/01/13 10:21:32;;;;;;;0.20;0.00;;;;;;;;;;4946527;28;20094;-80
2024/01/13 10:24:00;;;;;;;0.20;0.10;;;;;;;;;;4952480;28;20129;-81
2024/01/13 10:26:27;;;;;;;0.20;0.10;;;;;;;;;;4950967;28;20492;-81
2024/01/13 10:28:53;;;;;;;0.20;0.10;;;;;;;;;;4931960;28;20057;-81
2024/01/13 10:31:20;;;;;;;0.20;0.10;;;;;;;;;;4939135;28;20510;-81
2024/01/13 10:33:49;;;;;;;0.20;0.10;;;;;;;;;;4954350;28;20103;-82
2024/01/13 10:36:16;;;;;;;0.20;0.10;;;;;;;;;;4955486;28;20054;-84
2024/01/13 10:38:43;;;;;;;0.77;0.35;;;;;;;;;;4946952;28;20073;-83
2024/01/13 10:41:12;;;;;;;0.20;0.10;;;;;;;;;;4957424;28;20109;-83
2024/01/13 10:43:39;;;;;;;1.08;1.08;;;;;;;;;;4949220;28;20043;-81
2024/01/13 10:46:09;;;;;;;0.20;0.10;;;;;;;;;;4943997;28;20034;-83
2024/01/13 10:48:46;;;;;;;0.38;0.17;;;;;;;;;;4947411;28;20042;-79
2024/01/13 10:51:19;;;;;;;0.20;0.10;;;;;;;;;;4951275;28;20371;-83
2024/01/13 10:53:46;;;;;;;0.20;0.10;;;;;;;;;;4952155;28;20043;-84
2024/01/13 10:56:12;;;;;;;0.50;0.40;;;;;;;;;;4954102;28;20050;-83
2024/01/13 10:58:38;;;;;;;0.20;0.10;;;;;;;;;;4951940;28;20451;-83
2024/01/13 11:01:05;;;;;;;0.20;0.10;;;;;;;;;;4950754;28;20042;-81
2024/01/13 11:03:33;;;;;;;0.20;0.10;;;;;;;;;;4948107;28;20035;-81
2024/01/13 11:06:00;;;;;;;0.20;0.10;;;;;;;;;;4957023;28;20038;-83
2024/01/13 11:08:27;;;;;;;0.20;0.08;;;;;;;;;;4956834;28;20042;-80
2024/01/13 11:10:53;;;;;;;0.20;0.20;;;;;;;;;;4950925;28;20118;-79
2024/01/13 11:13:34;;;;;;;0.20;0.10;;;;;;;;;;4948073;28;20495;-82
2024/01/13 11:16:04;;;;;;;0.20;0.10;;;;;;;;;;4948327;28;20511;-81
2024/01/13 11:18:36;;;;;;;0.20;0.10;;;;;;;;;;4956707;28;20054;-82
2024/01/13 11:21:02;;;;;;;0.20;0.10;;;;;;;;;;4953029;28;20050;-80
2024/01/13 11:23:28;;;;;;;0.20;0.10;;;;;;;;;;4950523;28;20171;-82
2024/01/13 11:25:54;;;;;;;0.47;0.47;;;;;;;;;;4943279;28;20046;-79
2024/01/13 11:28:22;;;;;;;0.20;0.10;;;;;;;;;;4938153;28;20046;-82
2024/01/13 11:30:48;;;;;;;0.40;0.40;;;;;;;;;;4950473;28;20047;-83
2024/01/13 11:33:15;;;;;;;0.20;0.10;;;;;;;;;;4949483;28;20446;-81
2024/01/13 11:35:44;;;;;;;0.20;0.10;;;;;;;;;;4954511;28;20121;-81
2024/01/13 11:38:12;;;;;;;0.20;0.10;;;;;;;;;;4950448;28;20078;-83
2024/01/13 11:40:44;;;;;;;0.20;0.13;;;;;;;;;;4931672;28;20577;-82
2024/01/13 11:43:18;;;;;;;0.20;0.10;;;;;;;;;;4928530;28;20050;-80
2024/01/13 11:45:48;;;;;;;0.45;0.45;;;;;;;;;;4951951;28;20035;-83
2024/01/13 11:48:29;;;;;;;0.20;0.10;;;;;;;;;;4952425;28;20499;-82
2024/01/13 11:50:55;;;;;;;0.20;0.00;;;;;;;;;;4946743;28;20125;-83
2024/01/13 11:53:39;;;;;;;0.30;0.30;;;;;;;;;;4931406;28;20582;-82
2024/01/13 11:56:05;;;;;;;0.20;0.10;;;;;;;;;;4957042;28;20503;-80
2024/01/13 11:58:32;;;;;;;0.20;0.00;;;;;;;;;;4947127;28;20102;-82
2024/01/13 12:00:58;;;;;;;0.20;0.10;;;;;;;;;;4951311;28;20050;-80
2024/01/13 12:03:24;;;;;;;0.20;0.20;;;;;;;;;;4947048;28;20166;-81
2024/01/13 12:05:50;;;;;;;0.20;0.10;;;;;;;;;;4953447;28;20062;-81
2024/01/13 12:08:17;;;;;;;0.20;0.20;;;;;;;;;;4946536;28;20043;-82
2024/01/13 12:10:43;;;;;;;0.20;0.10;;;;;;;;;;4947448;28;20370;-81
2024/01/13 12:13:16;;;;;;;0.20;0.10;;;;;;;;;;4953373;28;20046;-82
2024/01/13 12:15:45;;;;;;;0.20;0.10;;;;;;;;;;4952447;28;20043;-79
2024/01/13 12:18:21;;;;;;;0.65;0.65;;;;;;;;;;4937534;28;20639;-82
2024/01/13 12:20:50;;;;;;;1.80;0.57;;;;;;;;;;4948893;28;20042;-82
2024/01/13 12:23:17;;;;;;;0.50;0.50;;;;;;;;;;4936765;28;20118;-82
2024/01/13 12:25:44;;;;;;;0.20;0.10;;;;;;;;;;4928899;28;20035;-83
2024/01/13 12:28:10;;;;;;;0.20;0.10;;;;;;;;;;4956438;28;20121;-83
2024/01/13 12:30:36;;;;;;;0.20;0.10;;;;;;;;;;4968564;28;20046;-82
2024/01/13 12:33:04;;;;;;;0.32;0.32;;;;;;;;;;4952383;28;20046;-82
2024/01/13 12:35:31;;;;;;;0.20;0.10;;;;;;;;;;4949728;28;20055;-83
2024/01/13 12:37:58;;;;;;;0.20;0.20;;;;;;;;;;4951901;28;20058;-84
2024/01/13 12:40:24;;;;;;;0.20;0.10;;;;;;;;;;4945739;28;20111;-83
2024/01/13 12:42:50;;;;;;;0.20;0.10;;;;;;;;;;4948683;28;20047;-85
2024/01/13 12:45:17;;;;;;;0.20;0.10;;;;;;;;;;4964044;28;20058;-81
2024/01/13 12:47:44;;;;;;;0.20;0.10;;;;;;;;;;4946841;28;20042;-84
2024/01/13 12:50:11;;;;;;;0.20;0.10;;;;;;;;;;4947354;28;20078;-82
2024/01/13 12:52:41;;;;;;;0.20;0.10;;;;;;;;;;4936367;28;20146;-84
2024/01/13 12:55:07;;;;;;;0.30;0.13;;;;;;;;;;4947887;28;20059;-84
2024/01/13 12:57:34;;;;;;;0.20;0.10;;;;;;;;;;4948645;28;20038;-84
2024/01/13 13:00:01;;;;;;;0.20;0.10;;;;;;;;;;4947357;28;20046;-82
2024/01/13 13:02:27;;;;;;;0.20;0.10;;;;;;;;;;4927064;28;20039;-81
2024/01/13 13:04:54;;;;;;;0.20;0.10;;;;;;;;;;4946890;28;20061;-82
2024/01/13 13:07:24;;;;;;;0.20;0.10;;;;;;;;;;4946870;28;20043;-86
2024/01/13 13:09:51;;;;;;;0.20;0.10;;;;;;;;;;4951892;28;20074;-83
2024/01/13 13:12:17;;;;;;;0.20;0.10;;;;;;;;;;4937320;28;20130;-83
2024/01/13 13:14:43;;;;;;;0.20;0.10;;;;;;;;;;4947129;28;20569;-82
2024/01/13 13:17:09;;;;;;;0.20;0.10;;;;;;;;;;4948714;28;20585;-82
2024/01/13 13:19:35;;;;;;;0.20;0.10;;;;;;;;;;4950007;28;20039;-83
2024/01/13 13:22:03;;;;;;;0.20;0.10;;;;;;;;;;4952249;28;20631;-83
2024/01/13 13:24:29;;;;;;;0.20;0.10;;;;;;;;;;4948282;28;20043;-88
2024/01/13 13:26:55;;;;;;;0.20;0.10;;;;;;;;;;4949470;28;20045;-82
2024/01/13 13:29:21;;;;;;;0.20;0.10;;;;;;;;;;4948951;28;20054;-80
2024/01/13 13:31:47;;;;;;;0.20;0.10;;;;;;;;;;4947237;28;20183;-82
2024/01/13 13:34:13;;;;;;;0.20;0.10;;;;;;;;;;4944530;28;20114;-81
2024/01/13 13:36:40;;;;;;;0.20;0.05;;;;;;;;;;4936946;28;20121;-80
2024/01/13 13:39:06;;;;;;;0.20;0.00;;;;;;;;;;4950424;28;20487;-81
2024/01/13 13:41:32;;;;;;;0.20;0.10;;;;;;;;;;4946485;28;20043;-80
2024/01/13 13:43:59;;;;;;;0.20;0.10;;;;;;;;;;4952544;28;20668;-84
2024/01/13 13:46:25;;;;;;;1.23;0.30;;;;;;;;;;4954384;28;20043;-83
2024/01/13 13:48:52;;;;;;;0.20;0.10;;;;;;;;;;4949185;28;20105;-83
2024/01/13 13:51:19;;;;;;;0.20;0.10;;;;;;;;;;4949073;28;20049;-83
2024/01/13 13:53:45;;;;;;;0.20;0.10;;;;;;;;;;4948720;28;20039;-84
2024/01/13 13:56:11;;;;;;;0.35;0.35;;;;;;;;;;4948885;28;20079;-82
2024/01/13 13:58:37;;;;;;;0.20;0.10;;;;;;;;;;4959143;28;20042;-81
2024/01/13 14:01:03;;;;;;;1.00;0.40;;;;;;;;;;4940999;28;20034;-83
2024/01/13 14:03:30;;;;;;;0.60;0.52;;;;;;;;;;4946447;28;20133;-82
2024/01/13 14:05:56;;;;;;;0.20;0.00;;;;;;;;;;4946929;28;20046;-80
2024/01/13 14:08:22;;;;;;;0.20;0.10;;;;;;;;;;4946598;28;20134;-81
2024/01/13 14:10:48;;;;;;;0.20;0.10;;;;;;;;;;4950724;28;20085;-81
2024/01/13 14:13:14;;;;;;;0.20;0.10;;;;;;;;;;4944203;28;20051;-81
2024/01/13 14:15:40;;;;;;;0.20;0.10;;;;;;;;;;4939007;28;20046;-82
2024/01/13 14:18:06;;;;;;;0.20;0.10;;;;;;;;;;4950352;28;20054;-83
2024/01/13 14:20:32;;;;;;;0.20;0.10;;;;;;;;;;4950494;28;20122;-81
2024/01/13 14:22:58;;;;;;;0.20;0.20;;;;;;;;;;4949083;28;20101;-81
2024/01/13 14:25:25;;;;;;;0.20;0.10;;;;;;;;;;4949348;28;20045;-82
2024/01/13 14:27:51;;;;;;;3.03;0.43;;;;;;;;;;4949896;28;20073;-82
2024/01/13 14:30:17;;;;;;;0.20;0.10;;;;;;;;;;4946435;28;20039;-81
2024/01/13 14:32:43;;;;;;;0.20;0.10;;;;;;;;;;4954363;28;20049;-81
2024/01/13 14:35:09;;;;;;;0.20;0.00;;;;;;;;;;4951763;28;20046;-83
2024/01/13 14:37:36;;;;;;;0.20;0.10;;;;;;;;;;4969403;28;20356;-82
2024/01/13 14:40:05;;;;;;;0.20;0.00;;;;;;;;;;4950993;28;20051;-81
2024/01/13 14:42:37;;;;;;;0.20;0.10;;;;;;;;;;4943167;28;20038;-81